createdAt,value
2022-09-23T00:02:55.928Z,100.00
2022-09-23T00:06:08.342Z,100.00
2022-09-23T00:09:18.556Z,100.00
2022-09-23T00:12:30.043Z,100.00
2022-09-23T00:15:40.862Z,100.00
2022-09-23T00:18:51.228Z,100.00
2022-09-23T00:22:01.429Z,100.00
2022-09-23T00:25:12.726Z,100.00
2022-09-23T00:28:24.523Z,100.00
2022-09-23T00:31:34.928Z,100.00
2022-09-23T00:34:45.663Z,100.00
2022-09-23T00:37:56.133Z,100.00
2022-09-23T00:41:06.594Z,100.00
2022-09-23T00:44:48.539Z,100.00
2022-09-23T00:48:01.328Z,100.00
2022-09-23T00:51:21.701Z,100.00
2022-09-23T00:54:32.204Z,100.00
2022-09-23T00:57:44.980Z,100.00
2022-09-23T01:00:58.670Z,100.00
2022-09-23T01:04:09.871Z,99.87
2022-09-23T01:07:20.199Z,100.00
2022-09-23T01:10:38.242Z,100.00
2022-09-23T01:13:57.013Z,100.00
2022-09-23T01:17:15.361Z,100.00
2022-09-23T01:21:00.680Z,100.00
2022-09-23T01:24:45.283Z,100.00
2022-09-23T01:28:22.330Z,100.00
2022-09-23T01:31:39.258Z,100.00
2022-09-23T01:34:56.054Z,100.00
2022-09-23T01:38:18.657Z,100.00
2022-09-23T01:41:47.147Z,100.00
2022-09-23T01:45:01.409Z,100.00
2022-09-23T01:48:19.167Z,100.00
2022-09-23T01:51:34.701Z,100.00
2022-09-23T01:54:52.172Z,100.00
2022-09-23T01:58:08.680Z,99.18
2022-09-23T02:01:24.401Z,99.08
2022-09-23T02:04:41.102Z,99.79
2022-09-23T02:07:59.797Z,99.25
2022-09-23T02:11:15.059Z,98.49
2022-09-23T02:14:32.221Z,98.78
2022-09-23T02:17:48.489Z,98.84
2022-09-23T02:21:06.782Z,98.98
2022-09-23T02:24:22.194Z,98.50
2022-09-23T02:27:40.470Z,98.86
2022-09-23T02:30:56.188Z,98.81
2022-09-23T02:34:16.280Z,98.64
2022-09-23T02:37:37.454Z,98.78
2022-09-23T02:40:54.237Z,98.83
2022-09-23T02:44:08.628Z,99.36
2022-09-23T02:47:24.093Z,99.88
2022-09-23T02:50:34.971Z,100.00
2022-09-23T02:53:47.651Z,100.00
2022-09-23T02:56:57.846Z,99.98
2022-09-23T03:00:08.765Z,100.00
2022-09-23T03:03:32.411Z,100.00
2022-09-23T03:06:53.452Z,100.00
2022-09-23T03:10:14.821Z,100.00
2022-09-23T03:13:31.653Z,100.00
2022-09-23T03:16:47.727Z,100.00
2022-09-23T03:20:03.652Z,100.00
2022-09-23T03:23:17.507Z,100.00
2022-09-23T03:26:34.333Z,100.00
2022-09-23T03:29:47.375Z,100.00
2022-09-23T03:33:00.211Z,100.00
2022-09-23T03:36:31.041Z,100.00
2022-09-23T03:39:44.188Z,100.00
2022-09-23T03:42:57.404Z,100.00
2022-09-23T03:46:09.069Z,100.00
2022-09-23T03:49:27.227Z,99.79
2022-09-23T03:52:39.675Z,100.00
2022-09-23T03:55:49.604Z,99.53
2022-09-23T03:59:01.069Z,99.82
2022-09-23T04:02:11.803Z,99.98
2022-09-23T04:05:22.078Z,99.96
2022-09-23T04:08:32.271Z,99.88
2022-09-23T04:11:42.540Z,100.00
2022-09-23T04:14:53.829Z,100.00
2022-09-23T04:18:04.085Z,100.00
2022-09-23T04:21:14.370Z,100.00
2022-09-23T04:24:24.460Z,100.00
2022-09-23T04:27:37.763Z,100.00
2022-09-23T04:30:49.961Z,100.00
2022-09-23T04:34:00.721Z,100.00
2022-09-23T04:37:10.963Z,100.00
2022-09-23T04:40:21.015Z,100.00
2022-09-23T04:43:31.125Z,100.00
2022-09-23T04:46:43.683Z,100.00
2022-09-23T04:49:58.999Z,100.00
2022-09-23T04:53:09.581Z,100.00
2022-09-23T04:56:20.973Z,100.00
2022-09-23T04:59:31.204Z,100.00
2022-09-23T05:02:45.423Z,100.00
2022-09-23T05:05:59.907Z,100.00
2022-09-23T05:09:14.924Z,100.00
2022-09-23T05:12:25.022Z,100.00
2022-09-23T05:15:34.832Z,100.00
2022-09-23T05:18:47.815Z,100.00
2022-09-23T05:21:58.144Z,100.00
2022-09-23T05:25:08.717Z,100.00
2022-09-23T05:28:20.098Z,100.00
2022-09-23T05:31:32.081Z,100.00
2022-09-23T05:34:43.911Z,100.00
2022-09-23T05:37:54.427Z,100.00
2022-09-23T05:41:07.138Z,100.00
2022-09-23T05:44:17.562Z,100.00
2022-09-23T05:47:27.483Z,100.00
2022-09-23T05:50:39.085Z,100.00
2022-09-23T05:53:52.535Z,99.91
2022-09-23T05:57:04.967Z,99.47
2022-09-23T06:00:16.563Z,99.44
2022-09-23T06:03:27.181Z,99.37
2022-09-23T06:06:41.306Z,98.50
2022-09-23T06:09:51.557Z,97.64
2022-09-23T06:13:01.697Z,97.83
2022-09-23T06:16:13.937Z,97.88
2022-09-23T06:19:24.211Z,98.17
2022-09-23T06:22:38.556Z,98.00
2022-09-23T06:25:50.029Z,97.65
2022-09-23T06:29:01.059Z,97.03
2022-09-23T06:32:11.325Z,96.74
2022-09-23T06:35:27.423Z,97.03
2022-09-23T06:38:41.898Z,96.92
2022-09-23T06:41:52.232Z,96.32
2022-09-23T06:45:02.777Z,96.07
2022-09-23T06:48:12.834Z,96.61
2022-09-23T06:51:23.118Z,96.45
2022-09-23T06:54:34.611Z,96.60
2022-09-23T06:57:44.739Z,96.72
2022-09-23T07:00:55.276Z,96.83
2022-09-23T07:04:07.671Z,96.39
2022-09-23T07:07:18.596Z,96.04
2022-09-23T07:10:31.087Z,95.76
2022-09-23T07:13:42.659Z,95.76
2022-09-23T07:16:53.843Z,95.06
2022-09-23T07:20:05.009Z,94.14
2022-09-23T07:23:17.528Z,93.42
2022-09-23T07:26:29.505Z,93.17
2022-09-23T07:29:47.777Z,92.07
2022-09-23T07:32:59.493Z,87.98
2022-09-23T07:36:12.236Z,81.55
2022-09-23T07:39:22.773Z,76.13
2022-09-23T07:42:34.551Z,72.77
2022-09-23T07:45:45.431Z,60.53
2022-09-23T07:48:56.280Z,61.12
2022-09-23T07:52:06.690Z,58.63
2022-09-23T07:55:20.959Z,62.49
2022-09-23T07:58:33.514Z,70.15
2022-09-23T08:01:46.093Z,74.54
2022-09-23T08:04:56.334Z,75.98
2022-09-23T08:08:07.181Z,77.47
2022-09-23T08:11:17.977Z,78.48
2022-09-23T08:14:29.940Z,78.36
2022-09-23T08:17:40.410Z,78.34
2022-09-23T08:20:50.436Z,77.98
2022-09-23T08:24:00.749Z,77.83
2022-09-23T08:27:12.598Z,77.27
2022-09-23T08:30:23.957Z,76.77
2022-09-23T08:33:34.015Z,78.12
2022-09-23T08:36:44.351Z,77.58
2022-09-23T08:39:54.428Z,77.41
2022-09-23T08:43:07.998Z,77.08
2022-09-23T08:46:25.970Z,76.28
2022-09-23T08:49:39.911Z,77.44
2022-09-23T08:52:53.738Z,75.87
2022-09-23T08:56:08.173Z,75.80
2022-09-23T08:59:26.762Z,74.72
2022-09-23T09:02:38.317Z,75.00
2022-09-23T09:05:54.195Z,74.08
2022-09-23T09:09:07.770Z,73.76
2022-09-23T09:12:21.658Z,73.99
2022-09-23T09:15:33.032Z,72.23
2022-09-23T09:18:52.656Z,72.34
2022-09-23T09:22:09.329Z,71.75
2022-09-23T09:25:25.716Z,70.77
2022-09-23T09:28:41.773Z,71.39
2022-09-23T09:31:52.191Z,71.78
2022-09-23T09:35:13.680Z,71.55
2022-09-23T09:38:24.118Z,69.50
2022-09-23T09:41:34.776Z,70.56
2022-09-23T09:44:52.759Z,70.99
2022-09-23T09:48:11.735Z,69.67
2022-09-23T09:51:24.023Z,69.44
2022-09-23T09:54:34.633Z,69.95
2022-09-23T09:57:48.022Z,67.95
2022-09-23T10:00:58.929Z,67.34
2022-09-23T10:04:25.044Z,65.70
2022-09-23T10:07:36.888Z,65.89
2022-09-23T10:10:54.571Z,65.17
2022-09-23T10:14:10.960Z,64.57
2022-09-23T10:17:23.095Z,63.72
2022-09-23T10:20:36.322Z,65.24
2022-09-23T10:23:52.539Z,63.58
2022-09-23T10:27:07.651Z,63.42
2022-09-23T10:30:23.671Z,63.85
2022-09-23T10:33:34.114Z,64.92
2022-09-23T10:36:55.005Z,64.19
2022-09-23T10:40:35.157Z,63.48
2022-09-23T10:44:16.715Z,62.29
2022-09-23T10:47:37.203Z,61.16
2022-09-23T10:50:50.426Z,60.65
2022-09-23T10:54:11.509Z,59.60
2022-09-23T10:57:40.473Z,59.93
2022-09-23T11:01:03.406Z,58.95
2022-09-23T11:04:39.230Z,57.93
2022-09-23T11:08:03.068Z,58.59
2022-09-23T11:11:29.829Z,58.41
2022-09-23T11:14:55.050Z,57.87
2022-09-23T11:18:38.984Z,58.55
2022-09-23T11:22:02.575Z,57.05
2022-09-23T11:25:24.120Z,55.95
2022-09-23T11:28:51.058Z,54.86
2022-09-23T11:32:17.327Z,54.90
2022-09-23T11:35:32.251Z,54.68
2022-09-23T11:38:47.396Z,55.57
2022-09-23T11:42:01.310Z,54.81
2022-09-23T11:45:19.139Z,54.13
2022-09-23T11:48:37.131Z,54.98
2022-09-23T11:52:03.999Z,55.58
2022-09-23T11:55:22.525Z,54.17
2022-09-23T12:02:09.868Z,54.53
2022-09-23T12:05:32.914Z,54.80
2022-09-23T12:08:53.631Z,57.10
2022-09-23T12:12:12.214Z,57.66
2022-09-23T12:15:29.958Z,53.81
2022-09-23T12:18:52.604Z,52.05
2022-09-23T12:22:20.645Z,50.69
2022-09-23T12:25:39.703Z,49.75
2022-09-23T12:28:52.992Z,49.71
2022-09-23T12:32:05.440Z,50.22
2022-09-23T12:35:24.756Z,50.36
2022-09-23T12:38:39.124Z,50.91
2022-09-23T12:41:55.055Z,50.56
2022-09-23T12:45:34.999Z,51.30
2022-09-23T12:49:00.440Z,51.09
2022-09-23T12:52:25.848Z,51.27
2022-09-23T12:55:51.692Z,50.72
2022-09-23T12:59:12.118Z,50.95
2022-09-23T13:02:29.923Z,51.70
2022-09-23T13:06:04.411Z,50.69
2022-09-23T13:09:21.080Z,50.34
2022-09-23T13:12:38.278Z,50.80
2022-09-23T13:15:49.790Z,50.49
2022-09-23T13:19:01.191Z,50.82
2022-09-23T13:22:12.082Z,50.04
2022-09-23T13:25:25.404Z,49.38
2022-09-23T13:28:54.626Z,49.69
2022-09-23T13:32:06.294Z,49.33
2022-09-23T13:35:23.768Z,49.51
2022-09-23T13:38:33.950Z,48.41
2022-09-23T13:41:46.276Z,48.14
2022-09-23T13:45:00.443Z,47.86
2022-09-23T13:48:15.337Z,48.23
2022-09-23T13:51:29.338Z,48.15
2022-09-23T13:54:49.238Z,48.70
2022-09-23T13:58:04.269Z,49.11
2022-09-23T14:01:23.702Z,49.53
2022-09-23T14:04:33.755Z,49.61
2022-09-23T14:07:43.687Z,48.83
2022-09-23T14:10:55.271Z,48.33
2022-09-23T14:14:07.111Z,48.65
2022-09-23T14:17:22.933Z,48.75
2022-09-23T14:20:34.281Z,48.66
2022-09-23T14:23:45.870Z,48.66
2022-09-23T14:26:59.821Z,49.17
2022-09-23T14:30:16.161Z,49.02
2022-09-23T14:33:31.475Z,49.02
2022-09-23T14:36:59.231Z,48.39
2022-09-23T14:40:14.781Z,48.29
2022-09-23T14:43:28.059Z,47.66
2022-09-23T14:46:40.043Z,48.06
2022-09-23T14:50:06.300Z,47.31
2022-09-23T14:53:38.731Z,47.49
2022-09-23T14:56:48.810Z,47.58
2022-09-23T15:00:02.339Z,47.78
2022-09-23T15:03:17.387Z,48.06
2022-09-23T15:06:29.188Z,48.34
2022-09-23T15:09:41.676Z,48.76
2022-09-23T15:12:53.489Z,48.84
2022-09-23T15:16:05.547Z,48.91
2022-09-23T15:19:20.133Z,48.89
2022-09-23T15:22:32.130Z,49.16
2022-09-23T15:25:42.374Z,49.83
2022-09-23T15:28:55.396Z,49.72
2022-09-23T15:32:08.458Z,50.18
2022-09-23T15:35:20.977Z,50.27
2022-09-23T15:38:32.826Z,50.42
2022-09-23T15:41:43.502Z,50.94
2022-09-23T15:44:53.591Z,50.94
2022-09-23T15:48:08.825Z,51.45
2022-09-23T15:51:19.538Z,51.87
2022-09-23T15:54:33.734Z,51.37
2022-09-23T15:57:44.003Z,51.90
2022-09-23T16:00:56.769Z,51.60
2022-09-23T16:04:07.210Z,51.73
2022-09-23T16:07:17.683Z,52.25
2022-09-23T16:10:30.316Z,52.47
2022-09-23T16:13:40.498Z,53.12
2022-09-23T16:16:50.861Z,52.87
2022-09-23T16:20:00.796Z,52.92
2022-09-23T16:23:34.125Z,52.85
2022-09-23T16:26:48.572Z,53.44
2022-09-23T16:29:58.977Z,53.27
2022-09-23T16:33:08.836Z,53.51
2022-09-23T16:36:24.085Z,53.97
2022-09-23T16:39:34.216Z,54.26
2022-09-23T16:42:46.500Z,54.65
2022-09-23T16:45:57.711Z,54.57
2022-09-23T16:49:08.841Z,54.97
2022-09-23T16:52:19.158Z,55.81
2022-09-23T16:55:29.274Z,55.76
2022-09-23T16:58:41.333Z,56.20
2022-09-23T17:02:09.216Z,56.48
2022-09-23T17:05:19.469Z,57.13
2022-09-23T17:08:29.967Z,57.62
2022-09-23T17:11:40.365Z,58.03
2022-09-23T17:14:52.426Z,58.57
2022-09-23T17:18:02.816Z,59.54
2022-09-23T17:21:13.135Z,59.90
2022-09-23T17:24:23.560Z,61.86
2022-09-23T17:27:33.708Z,63.15
2022-09-23T17:30:45.375Z,63.59
2022-09-23T17:33:55.510Z,63.09
2022-09-23T17:37:05.592Z,63.05
2022-09-23T17:40:15.855Z,63.63
2022-09-23T17:43:25.927Z,65.01
2022-09-23T17:46:37.964Z,65.91
2022-09-23T17:49:49.904Z,66.31
2022-09-23T17:53:00.870Z,66.85
2022-09-23T17:56:14.729Z,67.42
2022-09-23T17:59:24.984Z,68.00
2022-09-23T18:02:36.626Z,68.78
2022-09-23T18:05:47.144Z,68.96
2022-09-23T18:08:57.245Z,69.13
2022-09-23T18:12:08.511Z,69.83
2022-09-23T18:15:20.175Z,70.36
2022-09-23T18:18:31.983Z,70.73
2022-09-23T18:21:44.206Z,71.12
2022-09-23T18:24:54.568Z,71.42
2022-09-23T18:28:05.199Z,72.03
2022-09-23T18:31:16.374Z,72.44
2022-09-23T18:34:28.699Z,72.56
2022-09-23T18:37:38.876Z,72.19
2022-09-23T18:40:55.414Z,72.24
2022-09-23T18:44:06.119Z,72.46
2022-09-23T18:47:36.397Z,72.81
2022-09-23T18:50:48.902Z,73.33
2022-09-23T18:54:01.152Z,74.15
2022-09-23T18:57:14.563Z,74.31
2022-09-23T19:00:24.992Z,74.25
2022-09-23T19:03:35.516Z,74.72
2022-09-23T19:06:47.344Z,74.70
2022-09-23T19:09:57.788Z,75.18
2022-09-23T19:13:08.054Z,74.94
2022-09-23T19:16:18.362Z,75.42
2022-09-23T19:19:28.825Z,76.30
2022-09-23T19:22:40.775Z,77.20
2022-09-23T19:25:51.132Z,77.12
2022-09-23T19:29:03.213Z,75.53
2022-09-23T19:32:15.823Z,75.06
2022-09-23T19:35:26.073Z,75.52
2022-09-23T19:38:38.372Z,76.09
2022-09-23T19:41:48.851Z,76.29
2022-09-23T19:44:59.305Z,77.28
2022-09-23T19:48:09.577Z,77.62
2022-09-23T19:51:19.823Z,78.30
2022-09-23T19:54:31.186Z,78.69
2022-09-23T19:57:41.444Z,79.05
2022-09-23T20:00:51.768Z,79.29
2022-09-23T20:04:02.102Z,79.80
2022-09-23T20:07:12.254Z,80.34
2022-09-23T20:10:23.817Z,80.13
2022-09-23T20:13:34.140Z,80.18
2022-09-23T20:16:45.541Z,80.87
2022-09-23T20:19:56.125Z,81.33
2022-09-23T20:23:06.583Z,81.60
2022-09-23T20:26:35.426Z,82.01
2022-09-23T20:29:45.890Z,82.04
2022-09-23T20:32:55.933Z,82.45
2022-09-23T20:36:06.350Z,82.82
2022-09-23T20:39:16.536Z,83.90
2022-09-23T20:42:28.113Z,84.57
2022-09-23T20:45:38.220Z,85.39
2022-09-23T20:48:48.331Z,86.01
2022-09-23T20:51:58.498Z,86.84
2022-09-23T20:55:09.420Z,87.08
2022-09-23T20:58:26.924Z,87.46
2022-09-23T21:01:37.113Z,87.60
2022-09-23T21:04:47.183Z,87.48
2022-09-23T21:08:02.138Z,87.50
2022-09-23T21:11:15.809Z,87.65
2022-09-23T21:14:27.215Z,88.48
2022-09-23T21:17:37.411Z,88.94
2022-09-23T21:20:55.138Z,89.48
2022-09-23T21:24:38.799Z,90.29
2022-09-23T21:27:37.154Z,91.50
2022-09-23T21:30:51.933Z,92.32
2022-09-23T21:34:04.279Z,92.55
2022-09-23T21:37:14.610Z,93.33
2022-09-23T21:40:42.178Z,93.46
2022-09-23T21:43:52.541Z,93.39
2022-09-23T21:47:04.236Z,93.22
2022-09-23T21:50:14.373Z,93.47
2022-09-23T21:53:24.744Z,94.21
2022-09-23T21:56:37.724Z,94.66
2022-09-23T21:59:48.034Z,95.11
2022-09-23T22:02:59.918Z,95.09
2022-09-23T22:06:12.203Z,95.88
2022-09-23T22:09:22.581Z,96.17
2022-09-23T22:12:33.080Z,97.09
2022-09-23T22:15:43.770Z,97.53
2022-09-23T22:18:55.524Z,97.46
2022-09-23T22:22:09.735Z,97.96
2022-09-23T22:25:20.366Z,98.16
2022-09-23T22:28:47.963Z,98.26
2022-09-23T22:32:15.588Z,98.81
2022-09-23T22:35:27.392Z,98.46
2022-09-23T22:38:38.670Z,98.52
2022-09-23T22:41:50.634Z,98.99
2022-09-23T22:45:00.739Z,99.36
2022-09-23T22:48:10.936Z,100.00
2022-09-23T22:51:22.984Z,100.00
2022-09-23T22:54:34.225Z,100.00
2022-09-23T22:57:44.379Z,100.00
2022-09-23T23:00:57.053Z,100.00
2022-09-23T23:04:08.302Z,100.00
2022-09-23T23:07:21.641Z,100.00
2022-09-23T23:10:31.781Z,100.00
2022-09-23T23:13:42.473Z,100.00
2022-09-23T23:16:53.557Z,100.00
2022-09-23T23:20:03.789Z,100.00
2022-09-23T23:23:15.058Z,100.00
2022-09-23T23:26:27.257Z,100.00
2022-09-23T23:29:37.320Z,100.00
2022-09-23T23:32:47.446Z,100.00
2022-09-23T23:35:57.680Z,100.00
2022-09-23T23:39:09.444Z,100.00
2022-09-23T23:42:20.127Z,100.00
2022-09-23T23:45:30.309Z,100.00
2022-09-23T23:48:41.765Z,100.00
2022-09-23T23:51:52.094Z,100.00
2022-09-23T23:55:05.189Z,100.00
2022-09-23T23:58:16.022Z,100.00
